createdAt,value
2018-05-21T00:01:50.304Z,16.92
2018-05-21T00:04:18.590Z,16.92
2018-05-21T00:06:46.875Z,16.85
2018-05-21T00:09:15.198Z,16.62
2018-05-21T00:11:43.478Z,16.87
2018-05-21T00:14:11.749Z,16.82
2018-05-21T00:16:40.125Z,16.89
2018-05-21T00:19:08.311Z,16.86
2018-05-21T00:21:36.606Z,16.78
2018-05-21T00:24:04.892Z,16.79
2018-05-21T00:26:33.166Z,16.66
2018-05-21T00:29:01.784Z,16.54
2018-05-21T00:31:30.093Z,16.66
2018-05-21T00:33:58.382Z,16.65
2018-05-21T00:36:26.659Z,16.49
2018-05-21T00:38:55.258Z,16.63
2018-05-21T00:41:23.861Z,16.54
2018-05-21T00:43:52.149Z,16.60
2018-05-21T00:46:20.426Z,16.68
2018-05-21T00:48:48.699Z,16.57
2018-05-21T00:51:16.978Z,16.65
2018-05-21T00:53:45.274Z,16.53
2018-05-21T00:56:13.558Z,16.43
2018-05-21T00:58:41.834Z,16.62
2018-05-21T01:01:10.129Z,16.52
2018-05-21T01:03:38.406Z,16.49
2018-05-21T01:06:06.710Z,16.59
2018-05-21T01:08:35.020Z,16.45
2018-05-21T01:11:03.298Z,16.36
2018-05-21T01:13:31.590Z,16.47
2018-05-21T01:15:59.862Z,16.38
2018-05-21T01:18:28.161Z,16.39
2018-05-21T01:20:56.441Z,16.42
2018-05-21T01:23:24.711Z,16.46
2018-05-21T01:25:52.998Z,16.37
2018-05-21T01:28:21.274Z,16.26
2018-05-21T01:30:49.905Z,16.32
2018-05-21T01:33:18.196Z,16.45
2018-05-21T01:35:46.479Z,16.35
2018-05-21T01:38:14.758Z,16.30
2018-05-21T01:40:43.038Z,16.15
2018-05-21T01:43:11.346Z,16.09
2018-05-21T01:45:39.617Z,16.15
2018-05-21T01:48:07.905Z,16.20
2018-05-21T01:50:36.174Z,16.24
2018-05-21T01:53:04.449Z,16.20
2018-05-21T01:55:32.741Z,16.12
2018-05-21T01:58:01.022Z,16.13
2018-05-21T02:00:29.311Z,15.90
2018-05-21T02:02:57.598Z,16.08
2018-05-21T02:05:25.878Z,15.98
2018-05-21T02:07:54.174Z,16.11
2018-05-21T02:10:22.462Z,16.10
2018-05-21T02:12:50.739Z,16.25
2018-05-21T02:15:19.010Z,16.12
2018-05-21T02:17:47.297Z,16.10
2018-05-21T02:20:15.569Z,16.12
2018-05-21T02:22:43.878Z,16.08
2018-05-21T02:25:12.165Z,16.05
2018-05-21T02:27:40.438Z,16.16
2018-05-21T02:30:08.735Z,15.95
2018-05-21T02:32:37.018Z,16.13
2018-05-21T02:35:05.306Z,16.14
2018-05-21T02:37:33.587Z,16.11
2018-05-21T02:40:01.876Z,16.16
2018-05-21T02:42:30.154Z,16.13
2018-05-21T02:44:58.434Z,16.13
2018-05-21T02:47:26.722Z,16.08
2018-05-21T02:49:54.998Z,16.10
2018-05-21T02:52:23.272Z,16.20
2018-05-21T02:54:51.562Z,16.03
2018-05-21T02:57:19.890Z,16.09
2018-05-21T02:59:48.123Z,16.04
2018-05-21T03:02:16.394Z,16.03
2018-05-21T03:04:44.677Z,16.07
2018-05-21T03:07:12.962Z,15.94
2018-05-21T03:09:41.250Z,16.00
2018-05-21T03:12:09.554Z,15.87
2018-05-21T03:14:37.824Z,15.96
2018-05-21T03:17:06.102Z,15.79
2018-05-21T03:19:34.394Z,15.85
2018-05-21T03:22:02.718Z,15.60
2018-05-21T03:24:31.021Z,15.66
2018-05-21T03:26:59.299Z,15.72
2018-05-21T03:29:27.581Z,15.70
2018-05-21T03:31:55.870Z,15.82
2018-05-21T03:34:24.144Z,15.80
2018-05-21T03:36:52.453Z,15.83
2018-05-21T03:39:20.730Z,15.95
2018-05-21T03:41:49.014Z,15.83
2018-05-21T03:44:17.322Z,15.95
2018-05-21T03:46:46.002Z,15.95
2018-05-21T03:49:14.254Z,16.00
2018-05-21T03:51:42.529Z,16.00
2018-05-21T03:54:10.807Z,15.94
2018-05-21T03:56:39.092Z,15.97
2018-05-21T03:59:19.102Z,15.96
2018-05-21T04:01:59.170Z,15.88
2018-05-21T04:04:27.540Z,15.72
2018-05-21T04:06:55.737Z,15.81
2018-05-21T04:09:24.027Z,15.84
2018-05-21T04:11:52.361Z,15.85
2018-05-21T04:14:21.882Z,15.80
2018-05-21T04:16:50.152Z,15.79
2018-05-21T04:19:18.440Z,15.79
2018-05-21T04:21:46.733Z,15.75
2018-05-21T04:24:15.002Z,15.83
2018-05-21T04:26:43.290Z,15.81
2018-05-21T04:29:11.570Z,15.74
2018-05-21T04:31:39.865Z,15.79
2018-05-21T04:34:08.138Z,15.63
2018-05-21T04:36:36.423Z,15.71
2018-05-21T04:39:05.346Z,15.79
2018-05-21T04:41:33.621Z,15.63
2018-05-21T04:44:01.899Z,15.84
2018-05-21T04:46:30.206Z,15.79
2018-05-21T04:48:58.482Z,15.88
2018-05-21T04:51:26.750Z,15.85
2018-05-21T04:53:55.042Z,15.57
2018-05-21T04:56:23.766Z,15.82
2018-05-21T04:58:52.058Z,15.81
2018-05-21T05:01:20.340Z,15.62
2018-05-21T05:03:48.622Z,15.81
2018-05-21T05:06:16.917Z,15.76
2018-05-21T05:08:45.193Z,15.74
2018-05-21T05:11:13.486Z,15.64
2018-05-21T05:13:41.759Z,15.80
2018-05-21T05:16:10.056Z,15.84
2018-05-21T05:18:38.334Z,15.89
2018-05-21T05:21:06.651Z,16.03
2018-05-21T05:23:34.910Z,16.02
2018-05-21T05:26:03.194Z,15.92
2018-05-21T05:28:31.478Z,15.93
2018-05-21T05:30:59.785Z,16.09
2018-05-21T05:33:28.069Z,16.02
2018-05-21T05:35:56.392Z,16.29
2018-05-21T05:38:24.650Z,16.38
2018-05-21T05:40:52.933Z,16.46
2018-05-21T05:43:21.209Z,16.54
2018-05-21T05:45:49.504Z,16.65
2018-05-21T05:48:17.769Z,16.71
2018-05-21T05:50:46.038Z,16.90
2018-05-21T05:53:14.329Z,17.02
2018-05-21T05:55:42.610Z,17.13
2018-05-21T05:58:10.898Z,17.13
2018-05-21T06:00:39.186Z,17.19
2018-05-21T06:03:07.469Z,17.45
2018-05-21T06:05:35.742Z,17.72
2018-05-21T06:08:04.016Z,17.84
2018-05-21T06:10:32.295Z,17.89
2018-05-21T06:13:00.565Z,17.77
2018-05-21T06:15:28.967Z,17.99
2018-05-21T06:17:57.261Z,17.98
2018-05-21T06:20:25.522Z,18.12
2018-05-21T06:22:53.826Z,18.32
2018-05-21T06:25:22.091Z,18.25
2018-05-21T06:27:50.361Z,18.39
2018-05-21T06:30:18.642Z,18.51
2018-05-21T06:32:46.913Z,18.37
2018-05-21T06:35:15.478Z,18.48
2018-05-21T06:37:43.746Z,18.70
2018-05-21T06:40:12.954Z,18.82
2018-05-21T06:42:41.230Z,18.77
2018-05-21T06:45:09.512Z,19.02
2018-05-21T06:47:37.808Z,19.20
2018-05-21T06:50:06.078Z,19.30
2018-05-21T06:52:34.348Z,19.37
2018-05-21T06:55:02.619Z,19.55
2018-05-21T06:57:30.899Z,19.82
2018-05-21T06:59:59.979Z,19.96
2018-05-21T07:02:28.271Z,20.20
2018-05-21T07:04:56.548Z,20.11
2018-05-21T07:07:24.813Z,20.30
2018-05-21T07:09:53.090Z,20.58
2018-05-21T07:12:21.359Z,21.03
2018-05-21T07:14:49.625Z,20.57
2018-05-21T07:17:17.913Z,20.98
2018-05-21T07:19:46.182Z,21.20
2018-05-21T07:22:14.522Z,21.72
2018-05-21T07:24:48.377Z,21.19
2018-05-21T07:27:16.674Z,21.46
2018-05-21T07:29:44.961Z,21.87
2018-05-21T07:32:13.239Z,21.62
2018-05-21T07:34:41.510Z,21.74
2018-05-21T07:37:09.865Z,22.28
2018-05-21T07:39:38.126Z,22.05
2018-05-21T07:42:06.476Z,21.87
2018-05-21T07:44:34.748Z,22.10
2018-05-21T07:47:03.060Z,22.00
2018-05-21T07:49:31.338Z,22.04
2018-05-21T07:51:59.624Z,22.74
2018-05-21T07:54:27.894Z,22.86
2018-05-21T07:56:56.491Z,22.40
2018-05-21T07:59:24.777Z,22.71
2018-05-21T08:01:53.957Z,22.40
2018-05-21T08:04:22.249Z,22.89
2018-05-21T08:06:51.501Z,22.59
2018-05-21T08:09:19.758Z,23.07
2018-05-21T08:11:48.030Z,23.04
2018-05-21T08:14:16.315Z,23.60
2018-05-21T08:16:44.587Z,23.07
2018-05-21T08:19:12.854Z,22.69
2018-05-21T08:21:41.138Z,23.02
2018-05-21T08:24:09.430Z,22.73
2018-05-21T08:26:39.135Z,22.42
2018-05-21T08:29:07.411Z,23.04
2018-05-21T08:31:35.733Z,23.23
2018-05-21T08:34:04.014Z,23.03
2018-05-21T08:36:32.290Z,23.33
2018-05-21T08:39:00.594Z,23.28
2018-05-21T08:41:29.150Z,24.10
2018-05-21T08:43:57.450Z,23.86
2018-05-21T08:46:25.730Z,24.46
2018-05-21T08:48:54.067Z,23.39
2018-05-21T08:51:22.311Z,23.56
2018-05-21T08:53:50.594Z,23.92
2018-05-21T08:56:18.869Z,24.14
2018-05-21T08:58:47.213Z,23.98
2018-05-21T09:01:15.427Z,24.51
2018-05-21T09:03:43.702Z,23.69
2018-05-21T09:06:12.018Z,24.52
2018-05-21T09:08:40.292Z,24.43
2018-05-21T09:11:08.602Z,23.96
2018-05-21T09:13:36.866Z,24.41
2018-05-21T09:16:05.160Z,25.01
2018-05-21T09:18:33.768Z,25.85
2018-05-21T09:21:02.754Z,25.47
2018-05-21T09:23:31.094Z,25.25
2018-05-21T09:25:59.458Z,24.84
2018-05-21T09:28:27.647Z,25.26
2018-05-21T09:30:56.177Z,24.52
2018-05-21T09:33:24.454Z,25.14
2018-05-21T09:35:52.731Z,25.17
2018-05-21T09:38:20.995Z,25.94
2018-05-21T09:40:49.276Z,26.23
2018-05-21T09:43:17.626Z,25.98
2018-05-21T09:45:45.918Z,25.70
2018-05-21T09:48:14.207Z,25.62
2018-05-21T09:50:42.475Z,26.03
2018-05-21T09:53:10.750Z,25.35
2018-05-21T09:55:39.031Z,25.83
2018-05-21T09:58:07.315Z,25.66
2018-05-21T10:00:35.581Z,25.63
2018-05-21T10:03:03.875Z,25.68
2018-05-21T10:05:32.290Z,25.87
2018-05-21T10:08:00.662Z,26.68
2018-05-21T10:10:28.938Z,26.39
2018-05-21T10:12:57.227Z,26.38
2018-05-21T10:15:25.495Z,26.41
2018-05-21T10:17:53.790Z,26.41
2018-05-21T10:20:22.078Z,25.42
2018-05-21T10:22:50.347Z,25.42
2018-05-21T10:25:18.640Z,26.23
2018-05-21T10:27:46.918Z,26.50
2018-05-21T10:30:15.490Z,26.76
2018-05-21T10:32:43.798Z,26.74
2018-05-21T10:35:12.180Z,26.56
2018-05-21T10:37:40.467Z,26.39
2018-05-21T10:40:08.734Z,26.80
2018-05-21T10:42:37.132Z,26.95
2018-05-21T10:45:05.479Z,26.38
2018-05-21T10:47:33.767Z,26.31
2018-05-21T10:50:02.694Z,26.21
2018-05-21T10:52:31.208Z,26.19
2018-05-21T10:55:00.307Z,26.56
2018-05-21T10:57:28.614Z,26.12
2018-05-21T10:59:56.868Z,25.84
2018-05-21T11:02:25.549Z,25.52
2018-05-21T11:04:54.775Z,25.68
2018-05-21T11:07:23.046Z,25.49
2018-05-21T11:09:51.486Z,26.62
2018-05-21T11:12:19.882Z,25.76
2018-05-21T11:14:48.103Z,25.63
2018-05-21T11:17:16.400Z,25.50
2018-05-21T11:19:44.681Z,25.39
2018-05-21T11:22:12.958Z,25.77
2018-05-21T11:24:41.296Z,25.51
2018-05-21T11:27:09.510Z,25.96
2018-05-21T11:29:38.540Z,25.81
2018-05-21T11:32:06.813Z,25.77
2018-05-21T11:34:35.098Z,26.26
2018-05-21T11:37:03.376Z,26.44
2018-05-21T11:39:31.926Z,25.99
2018-05-21T11:42:00.202Z,26.90
2018-05-21T11:44:28.475Z,26.80
2018-05-21T11:46:56.759Z,26.23
2018-05-21T11:49:25.046Z,26.96
2018-05-21T11:51:53.353Z,26.96
2018-05-21T11:54:21.775Z,27.20
2018-05-21T11:56:50.058Z,26.99
2018-05-21T11:59:18.422Z,26.10
2018-05-21T12:01:46.680Z,26.92
2018-05-21T12:04:15.121Z,27.27
2018-05-21T12:06:43.417Z,27.28
2018-05-21T12:09:12.636Z,26.81
2018-05-21T12:11:40.918Z,26.68
2018-05-21T12:14:09.215Z,26.53
2018-05-21T12:16:37.499Z,26.95
2018-05-21T12:19:05.770Z,26.96
2018-05-21T12:21:34.054Z,25.97
2018-05-21T12:24:02.330Z,26.60
2018-05-21T12:26:30.646Z,26.28
2018-05-21T12:28:58.921Z,26.30
2018-05-21T12:31:27.210Z,26.39
2018-05-21T12:33:55.477Z,26.03
2018-05-21T12:36:23.761Z,26.00
2018-05-21T12:38:52.042Z,25.58
2018-05-21T12:41:20.346Z,25.53
2018-05-21T12:43:48.627Z,25.75
2018-05-21T12:46:16.906Z,26.18
2018-05-21T12:48:45.234Z,25.68
2018-05-21T12:51:13.506Z,25.59
2018-05-21T12:53:41.792Z,26.00
2018-05-21T12:56:10.073Z,25.79
2018-05-21T12:58:38.342Z,25.81
2018-05-21T13:01:06.631Z,26.49
2018-05-21T13:03:34.898Z,26.45
2018-05-21T13:06:03.202Z,26.38
2018-05-21T13:08:31.472Z,26.10
2018-05-21T13:10:59.751Z,26.61
2018-05-21T13:13:28.038Z,27.03
2018-05-21T13:15:56.298Z,26.83
2018-05-21T13:18:24.588Z,26.81
2018-05-21T13:20:52.866Z,26.68
2018-05-21T13:23:21.158Z,26.56
2018-05-21T13:25:49.429Z,26.91
2018-05-21T13:28:17.695Z,27.18
2018-05-21T13:30:45.973Z,27.01
2018-05-21T13:33:14.260Z,27.08
2018-05-21T13:35:42.534Z,27.12
2018-05-21T13:38:10.812Z,27.25
2018-05-21T13:40:39.415Z,26.87
2018-05-21T13:43:07.695Z,26.91
2018-05-21T13:45:35.958Z,27.17
2018-05-21T13:48:04.243Z,26.85
2018-05-21T13:50:32.981Z,26.67
2018-05-21T13:53:01.247Z,26.86
2018-05-21T13:55:29.534Z,26.48
2018-05-21T13:57:57.814Z,27.00
2018-05-21T14:00:26.097Z,26.75
2018-05-21T14:02:54.367Z,26.94
2018-05-21T14:05:22.682Z,27.08
2018-05-21T14:07:50.954Z,27.55
2018-05-21T14:10:19.242Z,27.37
2018-05-21T14:12:47.519Z,27.21
2018-05-21T14:15:15.810Z,26.81
2018-05-21T14:17:44.073Z,26.62
2018-05-21T14:20:12.452Z,26.44
2018-05-21T14:22:40.699Z,26.50
2018-05-21T14:25:09.009Z,26.47
2018-05-21T14:27:37.263Z,26.80
2018-05-21T14:30:05.583Z,26.53
2018-05-21T14:32:34.191Z,26.98
2018-05-21T14:35:02.463Z,26.83
2018-05-21T14:37:30.738Z,27.43
2018-05-21T14:39:59.022Z,27.48
2018-05-21T14:42:27.364Z,27.23
2018-05-21T14:44:55.646Z,27.27
2018-05-21T14:47:23.919Z,27.09
2018-05-21T14:49:52.216Z,27.30
2018-05-21T14:52:20.498Z,27.13
2018-05-21T14:54:48.779Z,27.01
2018-05-21T14:57:17.056Z,26.49
2018-05-21T14:59:45.720Z,26.16
2018-05-21T15:02:13.987Z,25.90
2018-05-21T15:04:42.266Z,25.93
2018-05-21T15:07:10.565Z,26.10
2018-05-21T15:09:38.856Z,25.98
2018-05-21T15:12:07.147Z,26.36
2018-05-21T15:14:35.574Z,26.01
2018-05-21T15:17:03.786Z,26.41
2018-05-21T15:19:32.271Z,26.25
2018-05-21T15:22:00.541Z,26.26
2018-05-21T15:24:28.840Z,26.29
2018-05-21T15:26:57.138Z,26.49
2018-05-21T15:29:25.489Z,26.49
2018-05-21T15:31:53.760Z,26.51
2018-05-21T15:34:22.052Z,26.23
2018-05-21T15:36:50.314Z,26.30
2018-05-21T15:39:18.607Z,26.34
2018-05-21T15:41:46.877Z,26.34
2018-05-21T15:44:15.156Z,26.50
2018-05-21T15:46:43.445Z,26.15
2018-05-21T15:49:11.704Z,26.53
2018-05-21T15:51:39.987Z,26.31
2018-05-21T15:54:08.284Z,26.08
2018-05-21T15:56:36.580Z,26.09
2018-05-21T15:59:04.852Z,25.91
2018-05-21T16:01:33.154Z,26.07
2018-05-21T16:04:01.446Z,26.33
2018-05-21T16:06:29.736Z,26.04
2018-05-21T16:08:58.050Z,26.18
2018-05-21T16:11:26.338Z,26.22
2018-05-21T16:13:54.626Z,26.27
2018-05-21T16:16:22.920Z,26.11
2018-05-21T16:18:51.174Z,26.43
2018-05-21T16:21:19.472Z,26.21
2018-05-21T16:23:47.754Z,26.18
2018-05-21T16:26:16.057Z,26.19
2018-05-21T16:28:44.339Z,26.08
2018-05-21T16:31:12.618Z,25.99
2018-05-21T16:33:40.895Z,26.34
2018-05-21T16:36:09.198Z,26.24
2018-05-21T16:38:37.471Z,26.00
2018-05-21T16:41:05.742Z,26.10
2018-05-21T16:43:34.150Z,25.77
2018-05-21T16:46:02.433Z,26.14
2018-05-21T16:48:30.756Z,26.03
2018-05-21T16:50:59.086Z,26.12
2018-05-21T16:53:27.416Z,26.07
2018-05-21T16:55:55.692Z,26.03
2018-05-21T16:58:23.957Z,26.03
2018-05-21T17:00:52.238Z,25.98
2018-05-21T17:03:20.518Z,26.08
2018-05-21T17:05:48.798Z,25.70
2018-05-21T17:08:17.082Z,25.84
2018-05-21T17:10:45.429Z,25.99
2018-05-21T17:13:13.704Z,26.20
2018-05-21T17:15:41.984Z,26.02
2018-05-21T17:18:10.402Z,25.88
2018-05-21T17:20:38.671Z,25.90
2018-05-21T17:23:07.098Z,25.99
2018-05-21T17:25:35.591Z,25.83
2018-05-21T17:28:03.892Z,25.61
2018-05-21T17:30:32.506Z,25.60
2018-05-21T17:33:00.755Z,24.82
2018-05-21T17:35:29.193Z,24.58
2018-05-21T17:37:57.416Z,24.62
2018-05-21T17:40:25.705Z,24.36
2018-05-21T17:42:53.973Z,24.54
2018-05-21T17:45:22.262Z,24.35
2018-05-21T17:47:50.542Z,24.27
2018-05-21T17:50:18.806Z,24.38
2018-05-21T17:52:47.086Z,24.44
2018-05-21T17:55:15.355Z,24.31
2018-05-21T17:57:43.644Z,24.31
2018-05-21T18:00:11.919Z,24.23
2018-05-21T18:02:40.516Z,24.10
2018-05-21T18:05:08.786Z,24.18
2018-05-21T18:07:37.058Z,24.06
2018-05-21T18:10:05.366Z,23.94
2018-05-21T18:12:33.655Z,23.76
2018-05-21T18:15:01.964Z,23.90
2018-05-21T18:17:30.246Z,23.98
2018-05-21T18:19:58.524Z,23.67
2018-05-21T18:22:26.807Z,23.73
2018-05-21T18:24:55.144Z,23.77
2018-05-21T18:27:23.451Z,23.85
2018-05-21T18:29:51.727Z,23.51
2018-05-21T18:32:20.039Z,23.54
2018-05-21T18:34:49.031Z,23.42
2018-05-21T18:37:17.312Z,23.51
2018-05-21T18:39:45.569Z,23.70
2018-05-21T18:42:13.906Z,23.34
2018-05-21T18:44:42.126Z,23.39
2018-05-21T18:47:10.405Z,23.21
2018-05-21T18:49:38.678Z,23.40
2018-05-21T18:52:06.960Z,23.28
2018-05-21T18:54:35.265Z,23.23
2018-05-21T18:57:03.539Z,23.24
2018-05-21T18:59:31.831Z,23.30
2018-05-21T19:02:00.127Z,22.90
2018-05-21T19:04:28.411Z,22.99
2018-05-21T19:06:56.694Z,22.99
2018-05-21T19:09:24.967Z,22.72
2018-05-21T19:11:53.263Z,22.85
2018-05-21T19:14:21.531Z,22.87
2018-05-21T19:16:49.809Z,22.72
2018-05-21T19:19:18.097Z,22.83
2018-05-21T19:21:46.445Z,22.69
2018-05-21T19:24:14.724Z,22.44
2018-05-21T19:26:43.001Z,22.41
2018-05-21T19:29:11.318Z,22.49
2018-05-21T19:31:39.600Z,22.47
2018-05-21T19:34:07.884Z,22.46
2018-05-21T19:36:36.176Z,22.45
2018-05-21T19:39:04.454Z,22.53
2018-05-21T19:41:32.746Z,22.07
2018-05-21T19:44:01.019Z,21.94
2018-05-21T19:46:29.331Z,22.00
2018-05-21T19:48:57.582Z,21.99
2018-05-21T19:51:26.510Z,21.83
2018-05-21T19:53:54.786Z,21.81
2018-05-21T19:56:23.070Z,21.64
2018-05-21T19:58:51.350Z,21.89
2018-05-21T20:01:19.638Z,21.79
2018-05-21T20:03:47.941Z,21.64
2018-05-21T20:06:16.209Z,21.51
2018-05-21T20:08:44.494Z,21.67
2018-05-21T20:11:12.766Z,21.61
2018-05-21T20:13:41.118Z,21.40
2018-05-21T20:16:09.332Z,21.65
2018-05-21T20:18:37.844Z,21.67
2018-05-21T20:21:06.095Z,21.59
2018-05-21T20:23:34.397Z,21.74
2018-05-21T20:26:02.676Z,21.68
2018-05-21T20:28:30.943Z,21.71
2018-05-21T20:30:59.230Z,21.87
2018-05-21T20:33:27.510Z,21.30
2018-05-21T20:35:56.679Z,21.32
2018-05-21T20:38:24.953Z,21.31
2018-05-21T20:40:53.225Z,21.36
2018-05-21T20:43:21.547Z,21.37
2018-05-21T20:45:49.826Z,21.47
2018-05-21T20:48:19.018Z,21.10
2018-05-21T20:50:47.286Z,20.95
2018-05-21T20:53:15.570Z,21.04
2018-05-21T20:55:43.839Z,20.92
2018-05-21T20:58:12.112Z,20.87
2018-05-21T21:00:40.403Z,20.96
2018-05-21T21:03:08.679Z,20.96
2018-05-21T21:05:37.075Z,20.94
2018-05-21T21:08:05.350Z,20.80
2018-05-21T21:10:34.458Z,20.78
2018-05-21T21:13:02.656Z,20.77
2018-05-21T21:15:30.966Z,20.58
2018-05-21T21:17:59.246Z,20.76
2018-05-21T21:20:27.519Z,20.76
2018-05-21T21:22:55.806Z,20.70
2018-05-21T21:25:24.079Z,20.50
2018-05-21T21:27:52.649Z,20.54
2018-05-21T21:30:20.932Z,20.45
2018-05-21T21:32:49.311Z,20.46
2018-05-21T21:35:17.598Z,20.24
2018-05-21T21:37:45.928Z,20.39
2018-05-21T21:40:14.242Z,20.25
2018-05-21T21:42:42.509Z,20.41
2018-05-21T21:45:10.802Z,20.28
2018-05-21T21:47:39.083Z,20.24
2018-05-21T21:50:07.358Z,20.11
2018-05-21T21:52:35.644Z,20.08
2018-05-21T21:55:03.922Z,20.01
2018-05-21T21:57:32.206Z,19.97
2018-05-21T22:00:00.470Z,20.08
2018-05-21T22:02:28.786Z,20.01
2018-05-21T22:04:57.072Z,20.11
2018-05-21T22:07:25.361Z,19.72
2018-05-21T22:09:53.654Z,19.98
2018-05-21T22:12:21.935Z,20.04
2018-05-21T22:14:50.219Z,20.12
2018-05-21T22:17:18.491Z,20.07
2018-05-21T22:19:46.774Z,20.00
2018-05-21T22:22:15.050Z,20.01
2018-05-21T22:24:43.330Z,19.97
2018-05-21T22:27:11.606Z,19.89
2018-05-21T22:29:39.873Z,20.02
2018-05-21T22:32:08.162Z,20.07
2018-05-21T22:34:36.439Z,20.04
2018-05-21T22:37:06.471Z,20.23
2018-05-21T22:39:34.734Z,20.16
2018-05-21T22:42:03.003Z,20.32
2018-05-21T22:44:31.296Z,20.33
2018-05-21T22:46:59.802Z,20.27
2018-05-21T22:49:28.090Z,20.21
2018-05-21T22:51:56.374Z,20.19
2018-05-21T22:54:35.451Z,20.07
2018-05-21T22:57:03.721Z,20.02
2018-05-21T22:59:32.561Z,19.98
2018-05-21T23:02:00.820Z,19.97
2018-05-21T23:04:29.102Z,19.93
2018-05-21T23:06:57.394Z,19.92
2018-05-21T23:09:25.679Z,19.78
2018-05-21T23:11:53.962Z,19.75
2018-05-21T23:14:22.343Z,19.84
2018-05-21T23:16:50.536Z,19.83
2018-05-21T23:19:18.815Z,19.93
2018-05-21T23:21:47.090Z,19.89
2018-05-21T23:24:15.382Z,19.93
2018-05-21T23:26:44.178Z,19.65
2018-05-21T23:29:12.459Z,19.77
2018-05-21T23:31:40.725Z,19.79
2018-05-21T23:34:09.000Z,19.87
2018-05-21T23:36:37.278Z,19.98
2018-05-21T23:39:05.555Z,19.90
2018-05-21T23:41:33.848Z,19.90
2018-05-21T23:44:02.115Z,19.91
2018-05-21T23:46:30.395Z,19.85
2018-05-21T23:48:58.678Z,19.73
2018-05-21T23:51:26.942Z,19.90
2018-05-21T23:53:56.018Z,19.87
2018-05-21T23:56:24.739Z,19.89
2018-05-21T23:58:53.274Z,19.74
